sensor_id;sensor_type;location;lat;lon;timestamp;P1;durP1;ratioP1;P2;durP2;ratioP2
25419;SDS011;13354;48.174;11.566;2023-01-28T00:00:49;30.42;;;18.73;;
25419;SDS011;13354;48.174;11.566;2023-01-28T00:03:15;30.33;;;19.35;;
25419;SDS011;13354;48.174;11.566;2023-01-28T00:05:40;29.05;;;18.48;;
25419;SDS011;13354;48.174;11.566;2023-01-28T00:08:06;28.70;;;18.58;;
25419;SDS011;13354;48.174;11.566;2023-01-28T00:10:31;32.67;;;20.52;;
25419;SDS011;13354;48.174;11.566;2023-01-28T00:12:56;33.88;;;20.02;;
25419;SDS011;13354;48.174;11.566;2023-01-28T00:15:22;32.92;;;19.63;;
25419;SDS011;13354;48.174;11.566;2023-01-28T00:17:49;31.85;;;19.88;;
25419;SDS011;13354;48.174;11.566;2023-01-28T00:20:15;31.30;;;20.75;;
25419;SDS011;13354;48.174;11.566;2023-01-28T00:22:40;33.15;;;20.48;;
25419;SDS011;13354;48.174;11.566;2023-01-28T00:25:10;30.15;;;20.50;;
25419;SDS011;13354;48.174;11.566;2023-01-28T00:27:35;29.70;;;19.45;;
25419;SDS011;13354;48.174;11.566;2023-01-28T00:30:01;31.25;;;18.98;;
25419;SDS011;13354;48.174;11.566;2023-01-28T00:32:26;31.20;;;20.65;;
25419;SDS011;13354;48.174;11.566;2023-01-28T00:34:51;31.40;;;20.23;;
25419;SDS011;13354;48.174;11.566;2023-01-28T00:37:16;31.85;;;19.77;;
25419;SDS011;13354;48.174;11.566;2023-01-28T00:39:42;33.63;;;21.17;;
25419;SDS011;13354;48.174;11.566;2023-01-28T00:42:07;32.25;;;20.30;;
25419;SDS011;13354;48.174;11.566;2023-01-28T00:44:32;32.53;;;20.42;;
25419;SDS011;13354;48.174;11.566;2023-01-28T00:46:57;32.72;;;20.40;;
25419;SDS011;13354;48.174;11.566;2023-01-28T00:49:23;32.58;;;21.50;;
25419;SDS011;13354;48.174;11.566;2023-01-28T00:51:48;31.75;;;20.15;;
25419;SDS011;13354;48.174;11.566;2023-01-28T00:54:13;32.55;;;20.48;;
25419;SDS011;13354;48.174;11.566;2023-01-28T00:56:38;32.45;;;20.40;;
25419;SDS011;13354;48.174;11.566;2023-01-28T00:59:04;33.80;;;21.90;;
25419;SDS011;13354;48.174;11.566;2023-01-28T01:01:29;31.67;;;19.92;;
25419;SDS011;13354;48.174;11.566;2023-01-28T01:03:55;34.97;;;21.60;;
25419;SDS011;13354;48.174;11.566;2023-01-28T01:06:30;31.38;;;20.38;;
25419;SDS011;13354;48.174;11.566;2023-01-28T01:08:58;32.33;;;21.60;;
25419;SDS011;13354;48.174;11.566;2023-01-28T01:11:23;30.88;;;21.10;;
25419;SDS011;13354;48.174;11.566;2023-01-28T01:13:49;33.13;;;21.17;;
25419;SDS011;13354;48.174;11.566;2023-01-28T01:16:19;32.80;;;21.65;;
25419;SDS011;13354;48.174;11.566;2023-01-28T01:18:45;34.80;;;21.48;;
25419;SDS011;13354;48.174;11.566;2023-01-28T01:21:13;35.22;;;21.83;;
25419;SDS011;13354;48.174;11.566;2023-01-28T01:23:39;35.30;;;21.77;;
25419;SDS011;13354;48.174;11.566;2023-01-28T01:26:05;35.55;;;21.52;;
25419;SDS011;13354;48.174;11.566;2023-01-28T01:28:31;33.53;;;21.65;;
25419;SDS011;13354;48.174;11.566;2023-01-28T01:31:15;40.00;;;22.10;;
25419;SDS011;13354;48.174;11.566;2023-01-28T01:33:44;35.78;;;21.30;;
25419;SDS011;13354;48.174;11.566;2023-01-28T01:36:12;32.22;;;20.15;;
25419;SDS011;13354;48.174;11.566;2023-01-28T01:38:38;33.25;;;20.60;;
25419;SDS011;13354;48.174;11.566;2023-01-28T01:41:05;34.97;;;20.67;;
25419;SDS011;13354;48.174;11.566;2023-01-28T01:43:45;36.47;;;21.85;;
25419;SDS011;13354;48.174;11.566;2023-01-28T01:46:22;35.10;;;20.90;;
25419;SDS011;13354;48.174;11.566;2023-01-28T01:48:48;35.67;;;21.40;;
25419;SDS011;13354;48.174;11.566;2023-01-28T01:51:16;34.25;;;21.13;;
25419;SDS011;13354;48.174;11.566;2023-01-28T01:53:46;34.47;;;21.15;;
25419;SDS011;13354;48.174;11.566;2023-01-28T01:56:16;33.55;;;21.45;;
25419;SDS011;13354;48.174;11.566;2023-01-28T01:58:46;33.13;;;21.10;;
25419;SDS011;13354;48.174;11.566;2023-01-28T02:01:16;37.10;;;21.02;;
25419;SDS011;13354;48.174;11.566;2023-01-28T02:06:33;33.92;;;19.52;;
25419;SDS011;13354;48.174;11.566;2023-01-28T02:09:00;34.35;;;21.30;;
25419;SDS011;13354;48.174;11.566;2023-01-28T02:11:26;37.40;;;21.42;;
25419;SDS011;13354;48.174;11.566;2023-01-28T02:13:55;39.53;;;21.58;;
25419;SDS011;13354;48.174;11.566;2023-01-28T02:16:23;34.88;;;21.75;;
25419;SDS011;13354;48.174;11.566;2023-01-28T02:18:49;36.10;;;21.40;;
25419;SDS011;13354;48.174;11.566;2023-01-28T02:29:43;35.20;;;21.08;;
25419;SDS011;13354;48.174;11.566;2023-01-28T02:32:43;35.05;;;21.77;;
25419;SDS011;13354;48.174;11.566;2023-01-28T02:35:14;34.95;;;21.70;;
25419;SDS011;13354;48.174;11.566;2023-01-28T02:37:49;29.25;;;17.42;;
25419;SDS011;13354;48.174;11.566;2023-01-28T02:40:51;35.55;;;21.70;;
25419;SDS011;13354;48.174;11.566;2023-01-28T02:43:34;33.45;;;20.42;;
25419;SDS011;13354;48.174;11.566;2023-01-28T02:46:18;33.70;;;20.63;;
25419;SDS011;13354;48.174;11.566;2023-01-28T02:49:30;34.72;;;20.90;;
25419;SDS011;13354;48.174;11.566;2023-01-28T02:57:44;33.22;;;20.30;;
25419;SDS011;13354;48.174;11.566;2023-01-28T03:00:24;36.88;;;21.45;;
25419;SDS011;13354;48.174;11.566;2023-01-28T03:05:55;33.15;;;21.50;;
25419;SDS011;13354;48.174;11.566;2023-01-28T03:08:30;27.55;;;17.02;;
25419;SDS011;13354;48.174;11.566;2023-01-28T03:11:17;37.92;;;21.33;;
25419;SDS011;13354;48.174;11.566;2023-01-28T03:14:01;28.63;;;16.63;;
25419;SDS011;13354;48.174;11.566;2023-01-28T03:16:45;26.75;;;17.05;;
25419;SDS011;13354;48.174;11.566;2023-01-28T03:19:30;33.85;;;20.90;;
25419;SDS011;13354;48.174;11.566;2023-01-28T03:22:14;28.55;;;17.48;;
25419;SDS011;13354;48.174;11.566;2023-01-28T03:24:59;35.63;;;21.05;;
25419;SDS011;13354;48.174;11.566;2023-01-28T03:28:03;32.80;;;21.30;;
25419;SDS011;13354;48.174;11.566;2023-01-28T03:30:56;35.70;;;21.20;;
25419;SDS011;13354;48.174;11.566;2023-01-28T03:33:46;30.02;;;16.20;;
25419;SDS011;13354;48.174;11.566;2023-01-28T03:36:30;32.35;;;20.20;;
25419;SDS011;13354;48.174;11.566;2023-01-28T03:39:15;25.52;;;16.02;;
25419;SDS011;13354;48.174;11.566;2023-01-28T03:41:42;32.60;;;20.77;;
25419;SDS011;13354;48.174;11.566;2023-01-28T03:44:20;33.10;;;20.88;;
25419;SDS011;13354;48.174;11.566;2023-01-28T03:47:03;26.90;;;16.58;;
25419;SDS011;13354;48.174;11.566;2023-01-28T03:49:31;35.70;;;20.40;;
25419;SDS011;13354;48.174;11.566;2023-01-28T03:51:56;32.55;;;20.00;;
25419;SDS011;13354;48.174;11.566;2023-01-28T03:54:21;31.00;;;20.45;;
25419;SDS011;13354;48.174;11.566;2023-01-28T03:56:47;32.00;;;20.50;;
25419;SDS011;13354;48.174;11.566;2023-01-28T03:59:13;29.60;;;19.02;;
25419;SDS011;13354;48.174;11.566;2023-01-28T04:01:39;31.88;;;20.65;;
25419;SDS011;13354;48.174;11.566;2023-01-28T04:04:04;33.10;;;20.67;;
25419;SDS011;13354;48.174;11.566;2023-01-28T04:06:29;32.10;;;20.48;;
25419;SDS011;13354;48.174;11.566;2023-01-28T04:08:55;28.77;;;19.83;;
25419;SDS011;13354;48.174;11.566;2023-01-28T04:11:23;29.63;;;20.20;;
25419;SDS011;13354;48.174;11.566;2023-01-28T04:13:50;32.90;;;20.55;;
25419;SDS011;13354;48.174;11.566;2023-01-28T04:16:16;33.22;;;20.80;;
25419;SDS011;13354;48.174;11.566;2023-01-28T04:18:43;30.38;;;20.48;;
25419;SDS011;13354;48.174;11.566;2023-01-28T04:21:09;29.25;;;19.63;;
25419;SDS011;13354;48.174;11.566;2023-01-28T04:23:34;29.73;;;19.38;;
25419;SDS011;13354;48.174;11.566;2023-01-28T04:26:00;29.77;;;19.13;;
25419;SDS011;13354;48.174;11.566;2023-01-28T04:28:25;32.53;;;20.60;;
25419;SDS011;13354;48.174;11.566;2023-01-28T04:30:51;28.52;;;18.60;;
25419;SDS011;13354;48.174;11.566;2023-01-28T04:33:17;28.75;;;18.13;;
25419;SDS011;13354;48.174;11.566;2023-01-28T04:35:42;29.17;;;19.20;;
25419;SDS011;13354;48.174;11.566;2023-01-28T04:38:08;27.40;;;18.58;;
25419;SDS011;13354;48.174;11.566;2023-01-28T04:40:33;32.30;;;19.30;;
25419;SDS011;13354;48.174;11.566;2023-01-28T04:42:58;31.30;;;20.00;;
25419;SDS011;13354;48.174;11.566;2023-01-28T04:45:24;28.17;;;18.40;;
25419;SDS011;13354;48.174;11.566;2023-01-28T04:47:49;28.30;;;18.23;;
25419;SDS011;13354;48.174;11.566;2023-01-28T04:50:15;27.55;;;19.25;;
25419;SDS011;13354;48.174;11.566;2023-01-28T04:52:41;28.27;;;18.50;;
25419;SDS011;13354;48.174;11.566;2023-01-28T04:55:06;32.10;;;19.95;;
25419;SDS011;13354;48.174;11.566;2023-01-28T04:57:33;31.27;;;19.70;;
25419;SDS011;13354;48.174;11.566;2023-01-28T04:59:58;30.05;;;19.50;;
25419;SDS011;13354;48.174;11.566;2023-01-28T05:02:23;27.13;;;19.30;;
25419;SDS011;13354;48.174;11.566;2023-01-28T05:04:49;29.10;;;19.13;;
25419;SDS011;13354;48.174;11.566;2023-01-28T05:07:14;33.40;;;19.48;;
25419;SDS011;13354;48.174;11.566;2023-01-28T05:09:39;31.42;;;19.10;;
25419;SDS011;13354;48.174;11.566;2023-01-28T05:12:05;28.92;;;19.08;;
25419;SDS011;13354;48.174;11.566;2023-01-28T05:14:30;30.35;;;19.80;;
25419;SDS011;13354;48.174;11.566;2023-01-28T05:16:55;31.90;;;19.92;;
25419;SDS011;13354;48.174;11.566;2023-01-28T05:19:20;29.38;;;19.23;;
25419;SDS011;13354;48.174;11.566;2023-01-28T05:21:46;29.27;;;19.58;;
25419;SDS011;13354;48.174;11.566;2023-01-28T05:24:11;30.98;;;19.77;;
25419;SDS011;13354;48.174;11.566;2023-01-28T05:26:36;30.58;;;19.63;;
25419;SDS011;13354;48.174;11.566;2023-01-28T05:29:02;31.92;;;19.10;;
25419;SDS011;13354;48.174;11.566;2023-01-28T05:31:28;29.63;;;18.85;;
25419;SDS011;13354;48.174;11.566;2023-01-28T05:33:53;29.17;;;19.25;;
25419;SDS011;13354;48.174;11.566;2023-01-28T05:36:18;28.48;;;18.17;;
25419;SDS011;13354;48.174;11.566;2023-01-28T05:38:44;30.58;;;18.20;;
25419;SDS011;13354;48.174;11.566;2023-01-28T05:41:09;28.80;;;18.33;;
25419;SDS011;13354;48.174;11.566;2023-01-28T05:43:34;24.83;;;17.45;;
25419;SDS011;13354;48.174;11.566;2023-01-28T05:46:00;28.90;;;18.85;;
25419;SDS011;13354;48.174;11.566;2023-01-28T05:48:25;27.48;;;17.80;;
25419;SDS011;13354;48.174;11.566;2023-01-28T05:50:51;27.23;;;17.45;;
25419;SDS011;13354;48.174;11.566;2023-01-28T05:53:16;26.98;;;17.98;;
25419;SDS011;13354;48.174;11.566;2023-01-28T05:55:41;27.20;;;17.17;;
25419;SDS011;13354;48.174;11.566;2023-01-28T05:58:06;26.73;;;18.15;;
25419;SDS011;13354;48.174;11.566;2023-01-28T06:00:32;28.58;;;17.90;;
25419;SDS011;13354;48.174;11.566;2023-01-28T06:02:57;31.23;;;19.08;;
25419;SDS011;13354;48.174;11.566;2023-01-28T06:05:22;27.73;;;18.48;;
25419;SDS011;13354;48.174;11.566;2023-01-28T06:07:48;27.88;;;18.02;;
25419;SDS011;13354;48.174;11.566;2023-01-28T06:10:14;29.90;;;17.80;;
25419;SDS011;13354;48.174;11.566;2023-01-28T06:12:42;30.88;;;18.05;;
25419;SDS011;13354;48.174;11.566;2023-01-28T06:15:07;26.90;;;18.10;;
25419;SDS011;13354;48.174;11.566;2023-01-28T06:17:33;32.30;;;20.17;;
25419;SDS011;13354;48.174;11.566;2023-01-28T06:19:59;28.85;;;18.13;;
25419;SDS011;13354;48.174;11.566;2023-01-28T06:22:24;29.17;;;19.15;;
25419;SDS011;13354;48.174;11.566;2023-01-28T06:24:49;28.45;;;18.95;;
25419;SDS011;13354;48.174;11.566;2023-01-28T06:27:15;28.08;;;18.15;;
25419;SDS011;13354;48.174;11.566;2023-01-28T06:29:40;27.33;;;17.88;;
25419;SDS011;13354;48.174;11.566;2023-01-28T06:32:05;30.40;;;19.33;;
25419;SDS011;13354;48.174;11.566;2023-01-28T06:34:31;27.13;;;17.90;;
25419;SDS011;13354;48.174;11.566;2023-01-28T06:36:56;27.25;;;17.65;;
25419;SDS011;13354;48.174;11.566;2023-01-28T06:39:22;26.90;;;17.33;;
25419;SDS011;13354;48.174;11.566;2023-01-28T06:41:50;27.90;;;17.95;;
25419;SDS011;13354;48.174;11.566;2023-01-28T06:44:15;28.83;;;18.63;;
25419;SDS011;13354;48.174;11.566;2023-01-28T06:46:41;27.30;;;18.67;;
25419;SDS011;13354;48.174;11.566;2023-01-28T06:49:06;30.65;;;19.27;;
25419;SDS011;13354;48.174;11.566;2023-01-28T06:51:32;30.75;;;18.40;;
25419;SDS011;13354;48.174;11.566;2023-01-28T06:53:57;31.63;;;19.65;;
25419;SDS011;13354;48.174;11.566;2023-01-28T06:56:22;28.02;;;18.83;;
25419;SDS011;13354;48.174;11.566;2023-01-28T06:58:48;31.05;;;19.20;;
25419;SDS011;13354;48.174;11.566;2023-01-28T07:01:13;31.40;;;20.13;;
25419;SDS011;13354;48.174;11.566;2023-01-28T07:03:38;27.70;;;18.40;;
25419;SDS011;13354;48.174;11.566;2023-01-28T07:06:04;28.65;;;18.90;;
25419;SDS011;13354;48.174;11.566;2023-01-28T07:08:29;29.38;;;18.73;;
25419;SDS011;13354;48.174;11.566;2023-01-28T07:10:55;31.52;;;19.48;;
25419;SDS011;13354;48.174;11.566;2023-01-28T07:13:21;27.38;;;18.48;;
25419;SDS011;13354;48.174;11.566;2023-01-28T07:15:46;28.40;;;18.55;;
25419;SDS011;13354;48.174;11.566;2023-01-28T07:18:12;26.60;;;16.92;;
25419;SDS011;13354;48.174;11.566;2023-01-28T07:20:38;29.73;;;18.50;;
25419;SDS011;13354;48.174;11.566;2023-01-28T07:23:03;28.25;;;17.88;;
25419;SDS011;13354;48.174;11.566;2023-01-28T07:25:28;27.77;;;17.85;;
25419;SDS011;13354;48.174;11.566;2023-01-28T07:27:54;27.30;;;17.88;;
25419;SDS011;13354;48.174;11.566;2023-01-28T07:30:20;27.65;;;17.20;;
25419;SDS011;13354;48.174;11.566;2023-01-28T07:32:46;27.83;;;18.35;;
25419;SDS011;13354;48.174;11.566;2023-01-28T07:35:11;26.92;;;17.42;;
25419;SDS011;13354;48.174;11.566;2023-01-28T07:37:38;28.90;;;18.05;;
25419;SDS011;13354;48.174;11.566;2023-01-28T07:40:03;28.80;;;17.30;;
25419;SDS011;13354;48.174;11.566;2023-01-28T07:42:29;26.55;;;16.17;;
25419;SDS011;13354;48.174;11.566;2023-01-28T07:44:54;27.38;;;18.05;;
25419;SDS011;13354;48.174;11.566;2023-01-28T07:47:20;30.30;;;18.08;;
25419;SDS011;13354;48.174;11.566;2023-01-28T07:49:45;30.35;;;17.58;;
25419;SDS011;13354;48.174;11.566;2023-01-28T07:52:11;29.98;;;17.75;;
25419;SDS011;13354;48.174;11.566;2023-01-28T07:54:36;29.48;;;17.05;;
25419;SDS011;13354;48.174;11.566;2023-01-28T07:57:01;27.92;;;17.33;;
25419;SDS011;13354;48.174;11.566;2023-01-28T07:59:27;24.23;;;17.23;;
25419;SDS011;13354;48.174;11.566;2023-01-28T08:01:52;22.70;;;14.82;;
25419;SDS011;13354;48.174;11.566;2023-01-28T08:04:20;26.85;;;17.15;;
25419;SDS011;13354;48.174;11.566;2023-01-28T08:06:45;22.83;;;15.40;;
25419;SDS011;13354;48.174;11.566;2023-01-28T08:09:11;22.17;;;14.68;;
25419;SDS011;13354;48.174;11.566;2023-01-28T08:11:36;24.63;;;15.15;;
25419;SDS011;13354;48.174;11.566;2023-01-28T08:14:03;21.17;;;13.98;;
25419;SDS011;13354;48.174;11.566;2023-01-28T08:16:28;22.60;;;14.55;;
25419;SDS011;13354;48.174;11.566;2023-01-28T08:18:54;20.85;;;14.60;;
25419;SDS011;13354;48.174;11.566;2023-01-28T08:21:19;20.67;;;13.77;;
25419;SDS011;13354;48.174;11.566;2023-01-28T08:23:45;21.50;;;13.55;;
25419;SDS011;13354;48.174;11.566;2023-01-28T08:26:10;20.77;;;14.68;;
25419;SDS011;13354;48.174;11.566;2023-01-28T08:28:36;21.75;;;14.40;;
25419;SDS011;13354;48.174;11.566;2023-01-28T08:31:01;22.20;;;14.38;;
25419;SDS011;13354;48.174;11.566;2023-01-28T08:33:27;25.17;;;15.10;;
25419;SDS011;13354;48.174;11.566;2023-01-28T08:35:52;23.00;;;15.30;;
25419;SDS011;13354;48.174;11.566;2023-01-28T08:38:17;21.52;;;14.73;;
25419;SDS011;13354;48.174;11.566;2023-01-28T08:40:44;23.15;;;15.25;;
25419;SDS011;13354;48.174;11.566;2023-01-28T08:43:10;21.48;;;14.68;;
25419;SDS011;13354;48.174;11.566;2023-01-28T08:45:35;21.92;;;15.65;;
25419;SDS011;13354;48.174;11.566;2023-01-28T08:48:01;27.08;;;16.95;;
25419;SDS011;13354;48.174;11.566;2023-01-28T08:50:30;25.20;;;16.15;;
25419;SDS011;13354;48.174;11.566;2023-01-28T08:53:00;23.52;;;15.30;;
25419;SDS011;13354;48.174;11.566;2023-01-28T08:55:27;22.33;;;15.30;;
25419;SDS011;13354;48.174;11.566;2023-01-28T08:57:53;24.52;;;16.02;;
25419;SDS011;13354;48.174;11.566;2023-01-28T09:00:19;21.98;;;13.93;;
25419;SDS011;13354;48.174;11.566;2023-01-28T09:02:45;22.13;;;14.55;;
25419;SDS011;13354;48.174;11.566;2023-01-28T09:05:11;21.75;;;14.93;;
25419;SDS011;13354;48.174;11.566;2023-01-28T09:07:37;23.00;;;14.50;;
25419;SDS011;13354;48.174;11.566;2023-01-28T09:10:03;22.02;;;15.15;;
25419;SDS011;13354;48.174;11.566;2023-01-28T09:12:29;21.60;;;15.13;;
25419;SDS011;13354;48.174;11.566;2023-01-28T09:14:55;23.20;;;15.93;;
25419;SDS011;13354;48.174;11.566;2023-01-28T09:17:21;20.42;;;14.68;;
25419;SDS011;13354;48.174;11.566;2023-01-28T09:19:47;21.45;;;15.10;;
25419;SDS011;13354;48.174;11.566;2023-01-28T09:22:13;22.30;;;15.27;;
25419;SDS011;13354;48.174;11.566;2023-01-28T09:24:38;29.60;;;18.13;;
25419;SDS011;13354;48.174;11.566;2023-01-28T09:27:03;30.75;;;18.52;;
25419;SDS011;13354;48.174;11.566;2023-01-28T09:29:29;28.50;;;17.85;;
25419;SDS011;13354;48.174;11.566;2023-01-28T09:31:54;24.80;;;15.93;;
25419;SDS011;13354;48.174;11.566;2023-01-28T09:34:19;21.98;;;15.13;;
25419;SDS011;13354;48.174;11.566;2023-01-28T09:36:45;20.90;;;14.27;;
25419;SDS011;13354;48.174;11.566;2023-01-28T09:39:10;21.83;;;14.27;;
25419;SDS011;13354;48.174;11.566;2023-01-28T09:44:40;21.15;;;15.07;;
25419;SDS011;13354;48.174;11.566;2023-01-28T09:47:45;21.77;;;14.00;;
25419;SDS011;13354;48.174;11.566;2023-01-28T09:52:53;20.08;;;14.23;;
25419;SDS011;13354;48.174;11.566;2023-01-28T09:55:32;21.35;;;14.55;;
25419;SDS011;13354;48.174;11.566;2023-01-28T09:58:00;21.30;;;15.13;;
25419;SDS011;13354;48.174;11.566;2023-01-28T10:00:32;22.33;;;14.82;;
25419;SDS011;13354;48.174;11.566;2023-01-28T10:03:12;20.10;;;14.48;;
25419;SDS011;13354;48.174;11.566;2023-01-28T10:12:02;19.50;;;14.25;;
25419;SDS011;13354;48.174;11.566;2023-01-28T10:14:57;20.48;;;13.63;;
25419;SDS011;13354;48.174;11.566;2023-01-28T10:17:49;19.58;;;13.70;;
25419;SDS011;13354;48.174;11.566;2023-01-28T10:20:26;17.88;;;13.55;;
25419;SDS011;13354;48.174;11.566;2023-01-28T10:23:00;20.63;;;14.45;;
25419;SDS011;13354;48.174;11.566;2023-01-28T10:25:47;22.55;;;15.45;;
25419;SDS011;13354;48.174;11.566;2023-01-28T10:28:17;22.98;;;15.18;;
25419;SDS011;13354;48.174;11.566;2023-01-28T10:30:44;20.42;;;14.15;;
25419;SDS011;13354;48.174;11.566;2023-01-28T10:35:43;19.52;;;13.88;;
25419;SDS011;13354;48.174;11.566;2023-01-28T10:38:09;16.95;;;12.52;;
25419;SDS011;13354;48.174;11.566;2023-01-28T10:40:39;19.25;;;13.38;;
25419;SDS011;13354;48.174;11.566;2023-01-28T10:43:06;19.02;;;12.98;;
25419;SDS011;13354;48.174;11.566;2023-01-28T10:45:36;19.38;;;13.52;;
25419;SDS011;13354;48.174;11.566;2023-01-28T10:48:16;19.25;;;13.23;;
25419;SDS011;13354;48.174;11.566;2023-01-28T10:50:51;18.27;;;14.07;;
25419;SDS011;13354;48.174;11.566;2023-01-28T10:53:32;16.83;;;11.80;;
25419;SDS011;13354;48.174;11.566;2023-01-28T10:56:08;15.30;;;10.55;;
25419;SDS011;13354;48.174;11.566;2023-01-28T10:59:38;17.25;;;11.93;;
25419;SDS011;13354;48.174;11.566;2023-01-28T11:01:52;17.63;;;12.63;;
25419;SDS011;13354;48.174;11.566;2023-01-28T11:04:30;18.60;;;12.43;;
25419;SDS011;13354;48.174;11.566;2023-01-28T11:07:04;17.35;;;12.75;;
25419;SDS011;13354;48.174;11.566;2023-01-28T11:09:34;13.30;;;9.07;;
25419;SDS011;13354;48.174;11.566;2023-01-28T11:12:21;16.10;;;10.90;;
25419;SDS011;13354;48.174;11.566;2023-01-28T11:14:51;15.52;;;11.23;;
25419;SDS011;13354;48.174;11.566;2023-01-28T11:17:19;17.80;;;11.38;;
25419;SDS011;13354;48.174;11.566;2023-01-28T11:19:48;17.00;;;11.50;;
25419;SDS011;13354;48.174;11.566;2023-01-28T11:22:34;13.02;;;9.32;;
25419;SDS011;13354;48.174;11.566;2023-01-28T11:25:03;14.35;;;9.50;;
25419;SDS011;13354;48.174;11.566;2023-01-28T11:27:40;15.13;;;9.93;;
25419;SDS011;13354;48.174;11.566;2023-01-28T11:30:25;15.93;;;11.20;;
25419;SDS011;13354;48.174;11.566;2023-01-28T11:33:37;18.02;;;12.02;;
25419;SDS011;13354;48.174;11.566;2023-01-28T11:35:56;17.10;;;11.70;;
25419;SDS011;13354;48.174;11.566;2023-01-28T11:38:29;15.27;;;11.50;;
25419;SDS011;13354;48.174;11.566;2023-01-28T11:40:55;15.07;;;10.57;;
25419;SDS011;13354;48.174;11.566;2023-01-28T11:43:23;13.35;;;9.93;;
25419;SDS011;13354;48.174;11.566;2023-01-28T11:51:46;15.93;;;10.90;;
25419;SDS011;13354;48.174;11.566;2023-01-28T11:54:26;14.35;;;10.55;;
25419;SDS011;13354;48.174;11.566;2023-01-28T12:05:45;15.05;;;10.38;;
25419;SDS011;13354;48.174;11.566;2023-01-28T12:08:24;15.27;;;10.77;;
25419;SDS011;13354;48.174;11.566;2023-01-28T12:29:54;18.40;;;12.82;;
25419;SDS011;13354;48.174;11.566;2023-01-28T12:52:04;13.63;;;9.53;;
25419;SDS011;13354;48.174;11.566;2023-01-28T12:54:52;17.70;;;12.30;;
25419;SDS011;13354;48.174;11.566;2023-01-28T12:57:27;17.67;;;12.50;;
25419;SDS011;13354;48.174;11.566;2023-01-28T13:03:01;22.15;;;12.65;;
25419;SDS011;13354;48.174;11.566;2023-01-28T13:05:32;17.17;;;12.27;;
25419;SDS011;13354;48.174;11.566;2023-01-28T13:08:02;15.63;;;11.88;;
25419;SDS011;13354;48.174;11.566;2023-01-28T13:10:39;17.27;;;12.40;;
25419;SDS011;13354;48.174;11.566;2023-01-28T13:13:08;18.10;;;11.57;;
25419;SDS011;13354;48.174;11.566;2023-01-28T13:15:56;18.75;;;11.90;;
25419;SDS011;13354;48.174;11.566;2023-01-28T13:21:07;16.88;;;10.45;;
25419;SDS011;13354;48.174;11.566;2023-01-28T13:23:47;16.38;;;9.80;;
25419;SDS011;13354;48.174;11.566;2023-01-28T13:28:42;14.68;;;10.52;;
25419;SDS011;13354;48.174;11.566;2023-01-28T13:31:08;14.82;;;10.80;;
25419;SDS011;13354;48.174;11.566;2023-01-28T13:33:41;17.30;;;11.68;;
25419;SDS011;13354;48.174;11.566;2023-01-28T13:38:41;17.08;;;10.40;;
25419;SDS011;13354;48.174;11.566;2023-01-28T13:41:08;15.55;;;10.63;;
25419;SDS011;13354;48.174;11.566;2023-01-28T13:46:06;16.75;;;11.05;;
25419;SDS011;13354;48.174;11.566;2023-01-28T13:48:50;16.90;;;11.88;;
25419;SDS011;13354;48.174;11.566;2023-01-28T13:53:55;19.77;;;12.10;;
25419;SDS011;13354;48.174;11.566;2023-01-28T13:56:25;23.30;;;14.57;;
25419;SDS011;13354;48.174;11.566;2023-01-28T14:04:38;20.80;;;11.88;;
25419;SDS011;13354;48.174;11.566;2023-01-28T14:12:55;18.30;;;12.98;;
25419;SDS011;13354;48.174;11.566;2023-01-28T14:18:23;18.70;;;12.45;;
25419;SDS011;13354;48.174;11.566;2023-01-28T14:20:56;20.33;;;12.45;;
25419;SDS011;13354;48.174;11.566;2023-01-28T14:23:25;17.40;;;12.45;;
25419;SDS011;13354;48.174;11.566;2023-01-28T14:31:25;18.35;;;12.35;;
25419;SDS011;13354;48.174;11.566;2023-01-28T14:33:53;15.60;;;11.15;;
25419;SDS011;13354;48.174;11.566;2023-01-28T14:36:22;16.98;;;11.32;;
25419;SDS011;13354;48.174;11.566;2023-01-28T14:38:47;18.75;;;11.85;;
25419;SDS011;13354;48.174;11.566;2023-01-28T14:41:23;17.45;;;11.73;;
25419;SDS011;13354;48.174;11.566;2023-01-28T14:43:52;20.75;;;11.43;;
25419;SDS011;13354;48.174;11.566;2023-01-28T14:46:29;19.40;;;11.77;;
25419;SDS011;13354;48.174;11.566;2023-01-28T14:49:11;16.70;;;11.57;;
25419;SDS011;13354;48.174;11.566;2023-01-28T14:54:24;17.42;;;11.02;;
25419;SDS011;13354;48.174;11.566;2023-01-28T15:00:15;16.80;;;11.27;;
25419;SDS011;13354;48.174;11.566;2023-01-28T15:02:43;18.75;;;11.48;;
25419;SDS011;13354;48.174;11.566;2023-01-28T15:05:16;16.55;;;10.65;;
25419;SDS011;13354;48.174;11.566;2023-01-28T15:07:47;17.85;;;10.52;;
25419;SDS011;13354;48.174;11.566;2023-01-28T15:12:41;12.02;;;8.57;;
25419;SDS011;13354;48.174;11.566;2023-01-28T15:18:01;14.07;;;9.25;;
25419;SDS011;13354;48.174;11.566;2023-01-28T15:20:29;16.00;;;10.23;;
25419;SDS011;13354;48.174;11.566;2023-01-28T15:22:56;15.32;;;10.80;;
25419;SDS011;13354;48.174;11.566;2023-01-28T15:25:23;14.38;;;9.98;;
25419;SDS011;13354;48.174;11.566;2023-01-28T15:27:53;16.63;;;10.68;;
25419;SDS011;13354;48.174;11.566;2023-01-28T15:30:27;18.13;;;9.88;;
25419;SDS011;13354;48.174;11.566;2023-01-28T15:35:26;15.50;;;10.35;;
25419;SDS011;13354;48.174;11.566;2023-01-28T15:37:51;16.02;;;9.93;;
25419;SDS011;13354;48.174;11.566;2023-01-28T15:40:17;16.58;;;10.38;;
25419;SDS011;13354;48.174;11.566;2023-01-28T15:42:45;15.30;;;10.13;;
25419;SDS011;13354;48.174;11.566;2023-01-28T15:45:17;17.98;;;10.30;;
25419;SDS011;13354;48.174;11.566;2023-01-28T15:47:45;16.25;;;10.07;;
25419;SDS011;13354;48.174;11.566;2023-01-28T15:50:22;15.23;;;10.15;;
25419;SDS011;13354;48.174;11.566;2023-01-28T15:52:49;16.38;;;11.05;;
25419;SDS011;13354;48.174;11.566;2023-01-28T15:57:50;16.88;;;11.55;;
25419;SDS011;13354;48.174;11.566;2023-01-28T16:00:17;16.70;;;10.70;;
25419;SDS011;13354;48.174;11.566;2023-01-28T16:02:46;16.50;;;10.73;;
25419;SDS011;13354;48.174;11.566;2023-01-28T16:07:50;15.55;;;10.23;;
25419;SDS011;13354;48.174;11.566;2023-01-28T16:10:19;18.67;;;11.32;;
25419;SDS011;13354;48.174;11.566;2023-01-28T16:13:13;11.25;;;8.45;;
25419;SDS011;13354;48.174;11.566;2023-01-28T16:15:34;21.02;;;11.88;;
25419;SDS011;13354;48.174;11.566;2023-01-28T16:18:02;16.90;;;11.68;;
25419;SDS011;13354;48.174;11.566;2023-01-28T16:20:29;19.77;;;13.00;;
25419;SDS011;13354;48.174;11.566;2023-01-28T16:22:57;19.45;;;12.85;;
25419;SDS011;13354;48.174;11.566;2023-01-28T16:25:25;19.08;;;12.93;;
25419;SDS011;13354;48.174;11.566;2023-01-28T16:27:53;19.30;;;12.90;;
25419;SDS011;13354;48.174;11.566;2023-01-28T16:30:19;20.27;;;12.63;;
25419;SDS011;13354;48.174;11.566;2023-01-28T16:32:44;21.85;;;13.15;;
25419;SDS011;13354;48.174;11.566;2023-01-28T16:35:12;18.58;;;12.70;;
25419;SDS011;13354;48.174;11.566;2023-01-28T16:37:46;19.80;;;12.88;;
25419;SDS011;13354;48.174;11.566;2023-01-28T16:40:13;18.08;;;11.73;;
25419;SDS011;13354;48.174;11.566;2023-01-28T16:42:41;17.75;;;12.80;;
25419;SDS011;13354;48.174;11.566;2023-01-28T16:45:12;21.83;;;13.65;;